sensor_id;sensor_type;location;lat;lon;timestamp;temperature;humidity
64997;SHT31;51545;51.568;6.998;2023-07-13T00:02:08;16.83;78.30
64997;SHT31;51545;51.568;6.998;2023-07-13T00:04:34;16.88;78.06
64997;SHT31;51545;51.568;6.998;2023-07-13T00:06:59;16.80;78.27
64997;SHT31;51545;51.568;6.998;2023-07-13T00:09:25;16.68;78.86
64997;SHT31;51545;51.568;6.998;2023-07-13T00:11:56;16.56;80.01
64997;SHT31;51545;51.568;6.998;2023-07-13T00:14:23;16.42;80.86
64997;SHT31;51545;51.568;6.998;2023-07-13T00:16:50;16.43;80.30
64997;SHT31;51545;51.568;6.998;2023-07-13T00:19:16;16.16;81.63
64997;SHT31;51545;51.568;6.998;2023-07-13T00:21:42;16.09;82.05
64997;SHT31;51545;51.568;6.998;2023-07-13T00:24:08;15.97;82.12
64997;SHT31;51545;51.568;6.998;2023-07-13T00:26:40;15.97;81.28
64997;SHT31;51545;51.568;6.998;2023-07-13T00:29:09;15.94;82.11
64997;SHT31;51545;51.568;6.998;2023-07-13T00:31:35;16.08;83.18
64997;SHT31;51545;51.568;6.998;2023-07-13T00:34:01;15.73;83.74
64997;SHT31;51545;51.568;6.998;2023-07-13T00:36:27;15.84;80.45
64997;SHT31;51545;51.568;6.998;2023-07-13T00:38:52;15.91;79.98
64997;SHT31;51545;51.568;6.998;2023-07-13T00:41:18;16.02;80.14
64997;SHT31;51545;51.568;6.998;2023-07-13T00:43:44;16.11;79.48
64997;SHT31;51545;51.568;6.998;2023-07-13T00:46:12;16.09;78.69
64997;SHT31;51545;51.568;6.998;2023-07-13T00:48:47;16.06;79.90
64997;SHT31;51545;51.568;6.998;2023-07-13T00:51:14;16.04;79.71
64997;SHT31;51545;51.568;6.998;2023-07-13T00:53:44;16.08;79.86
64997;SHT31;51545;51.568;6.998;2023-07-13T00:56:09;16.14;78.37
64997;SHT31;51545;51.568;6.998;2023-07-13T00:58:36;16.09;77.96
64997;SHT31;51545;51.568;6.998;2023-07-13T01:01:01;16.32;77.53
64997;SHT31;51545;51.568;6.998;2023-07-13T01:03:27;16.19;77.79
64997;SHT31;51545;51.568;6.998;2023-07-13T01:05:52;16.09;78.38
64997;SHT31;51545;51.568;6.998;2023-07-13T01:08:19;16.11;77.98
64997;SHT31;51545;51.568;6.998;2023-07-13T01:10:53;16.15;78.23
64997;SHT31;51545;51.568;6.998;2023-07-13T01:13:19;16.14;78.11
64997;SHT31;51545;51.568;6.998;2023-07-13T01:15:46;16.11;78.33
64997;SHT31;51545;51.568;6.998;2023-07-13T01:18:14;16.06;78.39
64997;SHT31;51545;51.568;6.998;2023-07-13T01:20:49;16.15;78.01
64997;SHT31;51545;51.568;6.998;2023-07-13T01:23:16;16.21;78.32
64997;SHT31;51545;51.568;6.998;2023-07-13T01:25:41;16.14;78.63
64997;SHT31;51545;51.568;6.998;2023-07-13T01:28:07;16.09;78.95
64997;SHT31;51545;51.568;6.998;2023-07-13T01:30:37;16.06;78.15
64997;SHT31;51545;51.568;6.998;2023-07-13T01:33:05;16.15;78.12
64997;SHT31;51545;51.568;6.998;2023-07-13T01:35:33;16.15;77.93
64997;SHT31;51545;51.568;6.998;2023-07-13T01:37:59;16.19;77.80
64997;SHT31;51545;51.568;6.998;2023-07-13T01:40:26;16.19;77.42
64997;SHT31;51545;51.568;6.998;2023-07-13T01:42:52;16.30;77.67
64997;SHT31;51545;51.568;6.998;2023-07-13T01:45:18;16.16;77.70
64997;SHT31;51545;51.568;6.998;2023-07-13T01:47:43;16.29;77.06
64997;SHT31;51545;51.568;6.998;2023-07-13T01:50:09;16.26;77.33
64997;SHT31;51545;51.568;6.998;2023-07-13T01:52:34;16.18;77.47
64997;SHT31;51545;51.568;6.998;2023-07-13T01:55:00;16.28;77.80
64997;SHT31;51545;51.568;6.998;2023-07-13T01:57:25;16.16;77.89
64997;SHT31;51545;51.568;6.998;2023-07-13T01:59:51;16.06;78.30
64997;SHT31;51545;51.568;6.998;2023-07-13T02:02:16;16.01;78.55
64997;SHT31;51545;51.568;6.998;2023-07-13T02:04:41;16.04;78.38
64997;SHT31;51545;51.568;6.998;2023-07-13T02:07:08;15.99;78.48
64997;SHT31;51545;51.568;6.998;2023-07-13T02:09:34;15.99;78.49
64997;SHT31;51545;51.568;6.998;2023-07-13T02:12:00;15.94;78.77
64997;SHT31;51545;51.568;6.998;2023-07-13T02:14:26;15.92;78.76
64997;SHT31;51545;51.568;6.998;2023-07-13T02:16:51;15.85;78.95
64997;SHT31;51545;51.568;6.998;2023-07-13T02:19:16;15.88;79.03
64997;SHT31;51545;51.568;6.998;2023-07-13T02:21:42;15.78;79.47
64997;SHT31;51545;51.568;6.998;2023-07-13T02:24:08;15.87;79.21
64997;SHT31;51545;51.568;6.998;2023-07-13T02:26:33;15.71;79.63
64997;SHT31;51545;51.568;6.998;2023-07-13T02:29:01;15.63;80.00
64997;SHT31;51545;51.568;6.998;2023-07-13T02:31:26;15.61;80.17
64997;SHT31;51545;51.568;6.998;2023-07-13T02:33:52;15.69;79.73
64997;SHT31;51545;51.568;6.998;2023-07-13T02:36:17;15.61;79.95
64997;SHT31;51545;51.568;6.998;2023-07-13T02:38:44;15.64;80.12
64997;SHT31;51545;51.568;6.998;2023-07-13T02:41:09;15.66;80.05
64997;SHT31;51545;51.568;6.998;2023-07-13T02:43:36;15.63;80.63
64997;SHT31;51545;51.568;6.998;2023-07-13T02:46:02;15.59;80.72
64997;SHT31;51545;51.568;6.998;2023-07-13T02:48:32;15.56;80.86
64997;SHT31;51545;51.568;6.998;2023-07-13T02:50:59;15.57;81.37
64997;SHT31;51545;51.568;6.998;2023-07-13T02:53:25;15.63;80.79
64997;SHT31;51545;51.568;6.998;2023-07-13T02:55:52;15.61;81.10
64997;SHT31;51545;51.568;6.998;2023-07-13T02:58:17;15.46;81.66
64997;SHT31;51545;51.568;6.998;2023-07-13T03:00:45;15.44;81.49
64997;SHT31;51545;51.568;6.998;2023-07-13T03:03:12;15.40;81.56
64997;SHT31;51545;51.568;6.998;2023-07-13T03:05:40;15.40;81.70
64997;SHT31;51545;51.568;6.998;2023-07-13T03:08:10;15.35;81.62
64997;SHT31;51545;51.568;6.998;2023-07-13T03:10:36;15.32;81.79
64997;SHT31;51545;51.568;6.998;2023-07-13T03:13:04;15.32;81.91
64997;SHT31;51545;51.568;6.998;2023-07-13T03:15:30;15.26;82.01
64997;SHT31;51545;51.568;6.998;2023-07-13T03:17:56;15.19;82.57
64997;SHT31;51545;51.568;6.998;2023-07-13T03:20:22;15.28;82.36
64997;SHT31;51545;51.568;6.998;2023-07-13T03:22:47;15.32;82.56
64997;SHT31;51545;51.568;6.998;2023-07-13T03:25:13;15.39;82.26
64997;SHT31;51545;51.568;6.998;2023-07-13T03:27:39;15.38;82.37
64997;SHT31;51545;51.568;6.998;2023-07-13T03:30:05;15.35;82.37
64997;SHT31;51545;51.568;6.998;2023-07-13T03:32:32;15.39;82.47
64997;SHT31;51545;51.568;6.998;2023-07-13T03:34:57;15.36;82.30
64997;SHT31;51545;51.568;6.998;2023-07-13T03:37:23;15.42;82.48
64997;SHT31;51545;51.568;6.998;2023-07-13T03:39:49;15.39;82.58
64997;SHT31;51545;51.568;6.998;2023-07-13T03:42:16;15.35;82.68
64997;SHT31;51545;51.568;6.998;2023-07-13T03:44:43;15.26;83.30
64997;SHT31;51545;51.568;6.998;2023-07-13T03:47:17;15.29;83.16
64997;SHT31;51545;51.568;6.998;2023-07-13T03:49:43;15.25;82.91
64997;SHT31;51545;51.568;6.998;2023-07-13T03:52:09;15.19;83.22
64997;SHT31;51545;51.568;6.998;2023-07-13T03:54:35;15.29;82.79
64997;SHT31;51545;51.568;6.998;2023-07-13T03:57:01;15.25;83.25
64997;SHT31;51545;51.568;6.998;2023-07-13T03:59:31;15.31;83.00
64997;SHT31;51545;51.568;6.998;2023-07-13T04:02:00;15.40;82.82
64997;SHT31;51545;51.568;6.998;2023-07-13T04:04:29;15.35;82.99
64997;SHT31;51545;51.568;6.998;2023-07-13T04:06:55;15.38;82.83
64997;SHT31;51545;51.568;6.998;2023-07-13T04:09:24;15.43;82.72
64997;SHT31;51545;51.568;6.998;2023-07-13T04:11:51;15.39;83.20
64997;SHT31;51545;51.568;6.998;2023-07-13T04:14:16;15.43;83.23
64997;SHT31;51545;51.568;6.998;2023-07-13T04:16:42;15.49;83.20
64997;SHT31;51545;51.568;6.998;2023-07-13T04:19:09;15.59;82.63
64997;SHT31;51545;51.568;6.998;2023-07-13T04:21:36;15.61;83.09
64997;SHT31;51545;51.568;6.998;2023-07-13T04:24:02;15.63;82.97
64997;SHT31;51545;51.568;6.998;2023-07-13T04:26:29;15.64;82.67
64997;SHT31;51545;51.568;6.998;2023-07-13T04:28:56;15.75;82.52
64997;SHT31;51545;51.568;6.998;2023-07-13T04:31:22;15.78;82.51
64997;SHT31;51545;51.568;6.998;2023-07-13T04:33:48;15.74;82.34
64997;SHT31;51545;51.568;6.998;2023-07-13T04:36:16;15.80;82.31
64997;SHT31;51545;51.568;6.998;2023-07-13T04:38:42;15.81;82.52
64997;SHT31;51545;51.568;6.998;2023-07-13T04:41:08;15.81;82.64
64997;SHT31;51545;51.568;6.998;2023-07-13T04:43:34;15.84;82.83
64997;SHT31;51545;51.568;6.998;2023-07-13T04:46:05;15.91;82.83
64997;SHT31;51545;51.568;6.998;2023-07-13T04:48:36;15.97;82.61
64997;SHT31;51545;51.568;6.998;2023-07-13T04:51:04;16.02;82.51
64997;SHT31;51545;51.568;6.998;2023-07-13T04:53:30;16.05;82.51
64997;SHT31;51545;51.568;6.998;2023-07-13T04:55:58;16.08;82.46
64997;SHT31;51545;51.568;6.998;2023-07-13T04:58:24;16.05;82.30
64997;SHT31;51545;51.568;6.998;2023-07-13T05:00:50;16.15;82.71
64997;SHT31;51545;51.568;6.998;2023-07-13T05:03:16;16.12;82.90
64997;SHT31;51545;51.568;6.998;2023-07-13T05:05:42;16.18;82.38
64997;SHT31;51545;51.568;6.998;2023-07-13T05:08:08;16.14;83.12
64997;SHT31;51545;51.568;6.998;2023-07-13T05:10:35;16.22;83.34
64997;SHT31;51545;51.568;6.998;2023-07-13T05:13:01;16.12;82.86
64997;SHT31;51545;51.568;6.998;2023-07-13T05:15:27;16.19;83.03
64997;SHT31;51545;51.568;6.998;2023-07-13T05:17:52;16.25;83.32
64997;SHT31;51545;51.568;6.998;2023-07-13T05:20:19;16.16;83.13
64997;SHT31;51545;51.568;6.998;2023-07-13T05:22:45;16.21;83.59
64997;SHT31;51545;51.568;6.998;2023-07-13T05:25:12;16.33;83.60
64997;SHT31;51545;51.568;6.998;2023-07-13T05:27:39;16.40;83.81
64997;SHT31;51545;51.568;6.998;2023-07-13T05:30:05;16.30;83.49
64997;SHT31;51545;51.568;6.998;2023-07-13T05:32:31;16.47;84.09
64997;SHT31;51545;51.568;6.998;2023-07-13T05:34:57;16.33;83.72
64997;SHT31;51545;51.568;6.998;2023-07-13T05:37:22;16.29;83.83
64997;SHT31;51545;51.568;6.998;2023-07-13T05:39:48;16.43;83.73
64997;SHT31;51545;51.568;6.998;2023-07-13T05:42:14;16.54;83.41
64997;SHT31;51545;51.568;6.998;2023-07-13T05:44:39;16.65;84.32
64997;SHT31;51545;51.568;6.998;2023-07-13T05:47:05;16.50;83.93
64997;SHT31;51545;51.568;6.998;2023-07-13T05:49:31;16.53;83.92
64997;SHT31;51545;51.568;6.998;2023-07-13T05:51:56;16.54;84.15
64997;SHT31;51545;51.568;6.998;2023-07-13T05:54:22;16.67;84.54
64997;SHT31;51545;51.568;6.998;2023-07-13T05:56:48;16.59;83.65
64997;SHT31;51545;51.568;6.998;2023-07-13T05:59:13;16.70;84.15
64997;SHT31;51545;51.568;6.998;2023-07-13T06:01:39;16.53;84.43
64997;SHT31;51545;51.568;6.998;2023-07-13T06:04:04;16.56;84.17
64997;SHT31;51545;51.568;6.998;2023-07-13T06:06:30;16.70;84.34
64997;SHT31;51545;51.568;6.998;2023-07-13T06:08:55;16.80;84.14
64997;SHT31;51545;51.568;6.998;2023-07-13T06:11:23;16.78;84.15
64997;SHT31;51545;51.568;6.998;2023-07-13T06:13:50;16.87;84.77
64997;SHT31;51545;51.568;6.998;2023-07-13T06:16:16;16.54;84.70
64997;SHT31;51545;51.568;6.998;2023-07-13T06:18:43;16.61;84.46
64997;SHT31;51545;51.568;6.998;2023-07-13T06:21:14;16.77;83.99
64997;SHT31;51545;51.568;6.998;2023-07-13T06:23:42;16.95;83.53
64997;SHT31;51545;51.568;6.998;2023-07-13T06:26:13;16.83;83.52
64997;SHT31;51545;51.568;6.998;2023-07-13T06:28:39;16.80;83.95
64997;SHT31;51545;51.568;6.998;2023-07-13T06:31:08;16.99;83.86
64997;SHT31;51545;51.568;6.998;2023-07-13T06:33:36;17.09;84.34
64997;SHT31;51545;51.568;6.998;2023-07-13T06:36:03;17.25;83.30
64997;SHT31;51545;51.568;6.998;2023-07-13T06:38:30;17.57;82.47
64997;SHT31;51545;51.568;6.998;2023-07-13T06:40:55;17.36;82.54
64997;SHT31;51545;51.568;6.998;2023-07-13T06:43:21;17.39;82.72
64997;SHT31;51545;51.568;6.998;2023-07-13T06:45:46;17.20;83.92
64997;SHT31;51545;51.568;6.998;2023-07-13T06:48:15;17.01;83.97
64997;SHT31;51545;51.568;6.998;2023-07-13T06:50:42;17.09;83.60
64997;SHT31;51545;51.568;6.998;2023-07-13T06:53:08;17.14;83.58
64997;SHT31;51545;51.568;6.998;2023-07-13T06:55:34;17.32;83.73
64997;SHT31;51545;51.568;6.998;2023-07-13T06:57:59;17.49;83.13
64997;SHT31;51545;51.568;6.998;2023-07-13T07:00:25;17.51;82.52
64997;SHT31;51545;51.568;6.998;2023-07-13T07:02:50;17.70;82.37
64997;SHT31;51545;51.568;6.998;2023-07-13T07:05:16;17.74;82.63
64997;SHT31;51545;51.568;6.998;2023-07-13T07:07:42;17.82;82.38
64997;SHT31;51545;51.568;6.998;2023-07-13T07:10:07;17.80;81.86
64997;SHT31;51545;51.568;6.998;2023-07-13T07:12:33;17.82;81.62
64997;SHT31;51545;51.568;6.998;2023-07-13T07:14:58;17.84;82.08
64997;SHT31;51545;51.568;6.998;2023-07-13T07:17:24;17.74;82.28
64997;SHT31;51545;51.568;6.998;2023-07-13T07:19:51;18.01;81.79
64997;SHT31;51545;51.568;6.998;2023-07-13T07:22:19;18.29;81.95
64997;SHT31;51545;51.568;6.998;2023-07-13T07:24:45;18.32;81.22
64997;SHT31;51545;51.568;6.998;2023-07-13T07:27:10;18.36;80.98
64997;SHT31;51545;51.568;6.998;2023-07-13T07:29:36;18.20;81.37
64997;SHT31;51545;51.568;6.998;2023-07-13T07:32:01;18.12;81.40
64997;SHT31;51545;51.568;6.998;2023-07-13T07:34:27;18.30;81.62
64997;SHT31;51545;51.568;6.998;2023-07-13T07:36:53;18.29;81.80
64997;SHT31;51545;51.568;6.998;2023-07-13T07:39:18;18.27;82.25
64997;SHT31;51545;51.568;6.998;2023-07-13T07:41:44;18.06;81.59
64997;SHT31;51545;51.568;6.998;2023-07-13T07:44:09;18.25;81.04
64997;SHT31;51545;51.568;6.998;2023-07-13T07:46:35;18.34;80.83
64997;SHT31;51545;51.568;6.998;2023-07-13T07:49:01;18.49;80.92
64997;SHT31;51545;51.568;6.998;2023-07-13T07:51:26;18.29;79.95
64997;SHT31;51545;51.568;6.998;2023-07-13T07:53:52;18.44;80.05
64997;SHT31;51545;51.568;6.998;2023-07-13T07:56:17;18.60;79.24
64997;SHT31;51545;51.568;6.998;2023-07-13T07:58:43;18.75;78.96
64997;SHT31;51545;51.568;6.998;2023-07-13T08:01:09;18.68;79.22
64997;SHT31;51545;51.568;6.998;2023-07-13T08:03:35;19.15;78.58
64997;SHT31;51545;51.568;6.998;2023-07-13T08:06:00;18.96;78.17
64997;SHT31;51545;51.568;6.998;2023-07-13T08:08:26;18.99;78.11
64997;SHT31;51545;51.568;6.998;2023-07-13T08:10:52;19.23;77.50
64997;SHT31;51545;51.568;6.998;2023-07-13T08:13:18;19.35;78.53
64997;SHT31;51545;51.568;6.998;2023-07-13T08:15:43;19.18;78.46
64997;SHT31;51545;51.568;6.998;2023-07-13T08:18:08;18.77;78.31
64997;SHT31;51545;51.568;6.998;2023-07-13T08:20:37;18.53;78.26
64997;SHT31;51545;51.568;6.998;2023-07-13T08:23:03;18.80;78.36
64997;SHT31;51545;51.568;6.998;2023-07-13T08:25:29;18.99;77.73
64997;SHT31;51545;51.568;6.998;2023-07-13T08:27:54;19.03;77.73
64997;SHT31;51545;51.568;6.998;2023-07-13T08:30:20;18.78;78.16
64997;SHT31;51545;51.568;6.998;2023-07-13T08:32:45;18.59;78.22
64997;SHT31;51545;51.568;6.998;2023-07-13T08:35:11;18.77;78.44
64997;SHT31;51545;51.568;6.998;2023-07-13T08:37:36;18.84;77.01
64997;SHT31;51545;51.568;6.998;2023-07-13T08:40:02;19.26;77.38
64997;SHT31;51545;51.568;6.998;2023-07-13T08:42:32;19.44;77.06
64997;SHT31;51545;51.568;6.998;2023-07-13T08:45:12;20.01;77.38
64997;SHT31;51545;51.568;6.998;2023-07-13T08:47:46;19.93;75.72
64997;SHT31;51545;51.568;6.998;2023-07-13T08:50:17;19.25;76.10
64997;SHT31;51545;51.568;6.998;2023-07-13T08:52:44;19.33;76.25
64997;SHT31;51545;51.568;6.998;2023-07-13T08:55:15;20.06;76.74
64997;SHT31;51545;51.568;6.998;2023-07-13T08:57:46;19.82;75.74
64997;SHT31;51545;51.568;6.998;2023-07-13T09:00:18;19.79;75.91
64997;SHT31;51545;51.568;6.998;2023-07-13T09:02:56;19.65;75.58
64997;SHT31;51545;51.568;6.998;2023-07-13T09:10:58;19.98;76.05
64997;SHT31;51545;51.568;6.998;2023-07-13T09:16:04;19.95;75.30
64997;SHT31;51545;51.568;6.998;2023-07-13T09:21:16;20.04;74.68
64997;SHT31;51545;51.568;6.998;2023-07-13T09:23:46;19.93;74.35
64997;SHT31;51545;51.568;6.998;2023-07-13T09:26:13;20.36;74.23
64997;SHT31;51545;51.568;6.998;2023-07-13T09:28:45;20.32;73.60
64997;SHT31;51545;51.568;6.998;2023-07-13T09:31:34;20.20;74.22
64997;SHT31;51545;51.568;6.998;2023-07-13T09:34:09;20.09;74.30
64997;SHT31;51545;51.568;6.998;2023-07-13T09:36:36;20.08;74.54
64997;SHT31;51545;51.568;6.998;2023-07-13T09:41:37;20.16;74.38
64997;SHT31;51545;51.568;6.998;2023-07-13T09:44:13;20.06;75.79
64997;SHT31;51545;51.568;6.998;2023-07-13T09:46:47;20.32;74.79
64997;SHT31;51545;51.568;6.998;2023-07-13T09:49:22;20.77;74.01
64997;SHT31;51545;51.568;6.998;2023-07-13T09:52:00;20.80;71.87
64997;SHT31;51545;51.568;6.998;2023-07-13T09:54:28;20.75;72.22
64997;SHT31;51545;51.568;6.998;2023-07-13T09:56:58;20.46;72.72
64997;SHT31;51545;51.568;6.998;2023-07-13T09:59:35;20.27;73.53
64997;SHT31;51545;51.568;6.998;2023-07-13T10:02:38;20.04;74.92
64997;SHT31;51545;51.568;6.998;2023-07-13T10:07:26;19.63;76.60
64997;SHT31;51545;51.568;6.998;2023-07-13T10:09:52;19.67;76.19
64997;SHT31;51545;51.568;6.998;2023-07-13T10:12:22;19.74;76.06
64997;SHT31;51545;51.568;6.998;2023-07-13T10:14:50;19.64;76.91
64997;SHT31;51545;51.568;6.998;2023-07-13T10:17:21;19.51;76.56
64997;SHT31;51545;51.568;6.998;2023-07-13T10:20:01;19.78;74.87
64997;SHT31;51545;51.568;6.998;2023-07-13T10:25:22;20.39;75.43
64997;SHT31;51545;51.568;6.998;2023-07-13T10:27:52;21.15;72.61
64997;SHT31;51545;51.568;6.998;2023-07-13T10:30:23;21.70;71.04
64997;SHT31;51545;51.568;6.998;2023-07-13T10:32:53;20.77;71.85
64997;SHT31;51545;51.568;6.998;2023-07-13T10:35:20;20.88;70.91
64997;SHT31;51545;51.568;6.998;2023-07-13T10:40:14;20.71;71.27
64997;SHT31;51545;51.568;6.998;2023-07-13T10:42:46;20.43;71.51
64997;SHT31;51545;51.568;6.998;2023-07-13T10:45:18;21.03;70.51
64997;SHT31;51545;51.568;6.998;2023-07-13T10:47:47;21.22;69.91
64997;SHT31;51545;51.568;6.998;2023-07-13T10:50:17;21.20;69.29
64997;SHT31;51545;51.568;6.998;2023-07-13T10:52:47;21.82;69.02
64997;SHT31;51545;51.568;6.998;2023-07-13T11:01:08;22.90;65.05
64997;SHT31;51545;51.568;6.998;2023-07-13T11:06:13;23.08;65.47
64997;SHT31;51545;51.568;6.998;2023-07-13T11:18:46;21.92;65.69
64997;SHT31;51545;51.568;6.998;2023-07-13T11:21:33;21.49;67.57
64997;SHT31;51545;51.568;6.998;2023-07-13T11:26:44;21.43;68.89
64997;SHT31;51545;51.568;6.998;2023-07-13T11:31:43;22.54;64.97
64997;SHT31;51545;51.568;6.998;2023-07-13T11:34:19;22.56;66.01
64997;SHT31;51545;51.568;6.998;2023-07-13T11:36:52;21.94;66.05
64997;SHT31;51545;51.568;6.998;2023-07-13T11:42:18;22.23;63.58
64997;SHT31;51545;51.568;6.998;2023-07-13T11:44:47;23.67;63.05
64997;SHT31;51545;51.568;6.998;2023-07-13T11:47:16;24.25;61.20
64997;SHT31;51545;51.568;6.998;2023-07-13T11:49:47;23.55;59.42
64997;SHT31;51545;51.568;6.998;2023-07-13T11:52:15;23.16;60.28
64997;SHT31;51545;51.568;6.998;2023-07-13T11:54:46;23.40;60.69
64997;SHT31;51545;51.568;6.998;2023-07-13T11:57:24;23.46;59.90
64997;SHT31;51545;51.568;6.998;2023-07-13T11:59:53;24.15;60.80
64997;SHT31;51545;51.568;6.998;2023-07-13T12:02:33;23.78;57.27
64997;SHT31;51545;51.568;6.998;2023-07-13T12:05:09;23.18;59.47
64997;SHT31;51545;51.568;6.998;2023-07-13T12:07:38;22.30;62.42
64997;SHT31;51545;51.568;6.998;2023-07-13T12:12:58;22.32;62.83
64997;SHT31;51545;51.568;6.998;2023-07-13T12:15:42;22.35;63.44
64997;SHT31;51545;51.568;6.998;2023-07-13T12:18:18;23.15;62.17
64997;SHT31;51545;51.568;6.998;2023-07-13T12:20:46;22.90;62.85
64997;SHT31;51545;51.568;6.998;2023-07-13T12:23:31;23.50;60.89
64997;SHT31;51545;51.568;6.998;2023-07-13T12:26:00;23.73;59.61
64997;SHT31;51545;51.568;6.998;2023-07-13T12:33:56;23.35;58.52
64997;SHT31;51545;51.568;6.998;2023-07-13T12:36:23;23.14;60.15
64997;SHT31;51545;51.568;6.998;2023-07-13T12:38:48;22.92;61.02
64997;SHT31;51545;51.568;6.998;2023-07-13T12:41:14;22.88;61.20
64997;SHT31;51545;51.568;6.998;2023-07-13T12:43:40;23.11;59.12
64997;SHT31;51545;51.568;6.998;2023-07-13T12:46:24;23.09;60.39
64997;SHT31;51545;51.568;6.998;2023-07-13T12:48:53;22.81;60.50
64997;SHT31;51545;51.568;6.998;2023-07-13T12:51:26;22.68;61.39
64997;SHT31;51545;51.568;6.998;2023-07-13T12:53:57;22.52;60.62
64997;SHT31;51545;51.568;6.998;2023-07-13T12:56:30;22.36;61.99
64997;SHT31;51545;51.568;6.998;2023-07-13T12:58:58;22.08;63.02
64997;SHT31;51545;51.568;6.998;2023-07-13T13:01:29;21.92;63.19
64997;SHT31;51545;51.568;6.998;2023-07-13T13:04:00;21.81;64.14
64997;SHT31;51545;51.568;6.998;2023-07-13T13:06:32;20.41;69.61
64997;SHT31;51545;51.568;6.998;2023-07-13T13:09:00;20.01;74.00
64997;SHT31;51545;51.568;6.998;2023-07-13T13:11:26;19.29;78.84
64997;SHT31;51545;51.568;6.998;2023-07-13T13:13:54;18.26;79.43
64997;SHT31;51545;51.568;6.998;2023-07-13T13:18:52;18.25;82.37
64997;SHT31;51545;51.568;6.998;2023-07-13T13:21:19;18.34;84.12
64997;SHT31;51545;51.568;6.998;2023-07-13T13:23:45;18.08;84.86
64997;SHT31;51545;51.568;6.998;2023-07-13T13:26:12;18.23;83.04
64997;SHT31;51545;51.568;6.998;2023-07-13T13:28:40;18.30;84.19
64997;SHT31;51545;51.568;6.998;2023-07-13T13:31:09;18.06;84.24
64997;SHT31;51545;51.568;6.998;2023-07-13T13:33:39;18.36;83.46
64997;SHT31;51545;51.568;6.998;2023-07-13T13:36:12;18.74;82.77
64997;SHT31;51545;51.568;6.998;2023-07-13T13:38:40;18.72;82.89
64997;SHT31;51545;51.568;6.998;2023-07-13T13:41:07;18.71;83.61
64997;SHT31;51545;51.568;6.998;2023-07-13T13:43:35;19.36;81.64
64997;SHT31;51545;51.568;6.998;2023-07-13T13:46:00;19.29;78.52
64997;SHT31;51545;51.568;6.998;2023-07-13T13:48:29;19.58;79.77
64997;SHT31;51545;51.568;6.998;2023-07-13T13:50:57;19.91;78.60
64997;SHT31;51545;51.568;6.998;2023-07-13T13:53:24;19.88;77.59
64997;SHT31;51545;51.568;6.998;2023-07-13T13:55:50;19.93;77.94
64997;SHT31;51545;51.568;6.998;2023-07-13T13:58:17;19.63;78.27
64997;SHT31;51545;51.568;6.998;2023-07-13T14:00:43;19.58;78.86
64997;SHT31;51545;51.568;6.998;2023-07-13T14:03:17;19.02;80.51
64997;SHT31;51545;51.568;6.998;2023-07-13T14:05:44;19.08;80.04
64997;SHT31;51545;51.568;6.998;2023-07-13T14:08:15;19.27;81.37
64997;SHT31;51545;51.568;6.998;2023-07-13T14:10:42;19.20;81.18
64997;SHT31;51545;51.568;6.998;2023-07-13T14:13:14;19.13;81.40
64997;SHT31;51545;51.568;6.998;2023-07-13T14:15:43;19.25;82.56
64997;SHT31;51545;51.568;6.998;2023-07-13T14:18:10;19.12;81.05
64997;SHT31;51545;51.568;6.998;2023-07-13T14:20:35;19.03;81.17
64997;SHT31;51545;51.568;6.998;2023-07-13T14:23:01;18.96;82.95
64997;SHT31;51545;51.568;6.998;2023-07-13T14:25:26;18.44;82.81
64997;SHT31;51545;51.568;6.998;2023-07-13T14:27:53;18.75;82.62
64997;SHT31;51545;51.568;6.998;2023-07-13T14:30:23;19.09;81.99
64997;SHT31;51545;51.568;6.998;2023-07-13T14:32:49;19.39;81.36
64997;SHT31;51545;51.568;6.998;2023-07-13T14:35:16;19.70;80.35
64997;SHT31;51545;51.568;6.998;2023-07-13T14:37:42;19.70;81.31
64997;SHT31;51545;51.568;6.998;2023-07-13T14:42:39;20.48;80.00
64997;SHT31;51545;51.568;6.998;2023-07-13T14:45:05;20.91;77.58
64997;SHT31;51545;51.568;6.998;2023-07-13T14:47:36;21.01;76.24
64997;SHT31;51545;51.568;6.998;2023-07-13T14:50:02;21.20;76.63
64997;SHT31;51545;51.568;6.998;2023-07-13T14:52:30;21.10;78.03
64997;SHT31;51545;51.568;6.998;2023-07-13T14:54:55;21.46;75.16
64997;SHT31;51545;51.568;6.998;2023-07-13T14:57:21;21.53;72.59
64997;SHT31;51545;51.568;6.998;2023-07-13T14:59:47;21.92;71.57
64997;SHT31;51545;51.568;6.998;2023-07-13T15:04:43;22.87;69.51
64997;SHT31;51545;51.568;6.998;2023-07-13T15:07:09;22.68;68.67
64997;SHT31;51545;51.568;6.998;2023-07-13T15:09:35;22.77;69.50
64997;SHT31;51545;51.568;6.998;2023-07-13T15:12:01;23.25;66.34
64997;SHT31;51545;51.568;6.998;2023-07-13T15:14:26;22.67;67.33
64997;SHT31;51545;51.568;6.998;2023-07-13T15:16:53;22.18;67.52
64997;SHT31;51545;51.568;6.998;2023-07-13T15:19:20;21.88;69.48
64997;SHT31;51545;51.568;6.998;2023-07-13T15:21:48;21.27;70.40
64997;SHT31;51545;51.568;6.998;2023-07-13T15:24:14;21.36;71.06
64997;SHT31;51545;51.568;6.998;2023-07-13T15:26:40;21.13;70.56
64997;SHT31;51545;51.568;6.998;2023-07-13T15:29:10;20.88;72.57
64997;SHT31;51545;51.568;6.998;2023-07-13T15:31:36;20.78;72.11
64997;SHT31;51545;51.568;6.998;2023-07-13T15:34:07;20.63;73.18
64997;SHT31;51545;51.568;6.998;2023-07-13T15:36:37;20.60;73.35
64997;SHT31;51545;51.568;6.998;2023-07-13T15:39:02;20.47;74.63
64997;SHT31;51545;51.568;6.998;2023-07-13T15:41:28;20.44;74.58
64997;SHT31;51545;51.568;6.998;2023-07-13T15:43:55;20.13;74.78
64997;SHT31;51545;51.568;6.998;2023-07-13T15:46:25;19.33;80.97
64997;SHT31;51545;51.568;6.998;2023-07-13T15:48:53;18.36;82.78
64997;SHT31;51545;51.568;6.998;2023-07-13T15:53:50;18.05;84.13
64997;SHT31;51545;51.568;6.998;2023-07-13T15:56:23;17.80;86.01
64997;SHT31;51545;51.568;6.998;2023-07-13T15:58:51;18.08;86.09
64997;SHT31;51545;51.568;6.998;2023-07-13T16:01:17;17.94;87.11
64997;SHT31;51545;51.568;6.998;2023-07-13T16:03:44;18.12;86.05
64997;SHT31;51545;51.568;6.998;2023-07-13T16:06:13;18.18;87.13
64997;SHT31;51545;51.568;6.998;2023-07-13T16:08:41;18.34;86.79
64997;SHT31;51545;51.568;6.998;2023-07-13T16:11:18;18.29;87.36
64997;SHT31;51545;51.568;6.998;2023-07-13T16:13:47;18.30;88.16
64997;SHT31;51545;51.568;6.998;2023-07-13T16:16:18;18.22;87.79
64997;SHT31;51545;51.568;6.998;2023-07-13T16:18:44;18.33;89.16
64997;SHT31;51545;51.568;6.998;2023-07-13T16:21:10;18.15;89.07
64997;SHT31;51545;51.568;6.998;2023-07-13T16:23:37;18.34;88.86
64997;SHT31;51545;51.568;6.998;2023-07-13T16:26:04;18.72;89.49
64997;SHT31;51545;51.568;6.998;2023-07-13T16:28:41;18.68;89.39
64997;SHT31;51545;51.568;6.998;2023-07-13T16:31:08;18.84;89.27
64997;SHT31;51545;51.568;6.998;2023-07-13T16:33:35;19.12;88.57
64997;SHT31;51545;51.568;6.998;2023-07-13T16:36:00;19.50;87.61
64997;SHT31;51545;51.568;6.998;2023-07-13T16:38:27;19.81;87.90
64997;SHT31;51545;51.568;6.998;2023-07-13T16:40:56;19.78;87.26